<?xml version="1.0" encoding="UTF-8" standalone="no" ?>
<gpx xmlns="http://www.topografix.com/GPX/1/1" xmlns:xsi="http://www.w3.org/2001/XMLSchema-instance" xsi:schemaLocation="http://www.topografix.com/GPX/1/1 http://www.topografix.com/GPX/1/1/gpx.xsd" version="1.1" creator="VisuGPX - https://www.visugpx.com">
  <metadata>
    <name>Plo del Naout, 1754m, en boucle depuis Payolle</name>
  </metadata>
  <trk>
    <name><![CDATA[Plo del Naout, 1754m, en boucle depuis Payolle]]></name>
    <trkseg>
      <trkpt lat="42.94277" lon="0.27915">
        <ele>1090</ele>
        <time>2021-12-18T09:12:26+01:00</time>
      </trkpt>
      <trkpt lat="42.94265" lon="0.27942">
        <ele>1091</ele>
        <time>2021-12-18T09:12:45+01:00</time>
      </trkpt>
      <trkpt lat="42.94253" lon="0.27969">
        <ele>1091</ele>
        <time>2021-12-18T09:13:03+01:00</time>
      </trkpt>
      <trkpt lat="42.94239" lon="0.27994">
        <ele>1092</ele>
        <time>2021-12-18T09:13:38+01:00</time>
      </trkpt>
      <trkpt lat="42.94227" lon="0.2802">
        <ele>1093</ele>
        <time>2021-12-18T09:14:00+01:00</time>
      </trkpt>
      <trkpt lat="42.94211" lon="0.28044">
        <ele>1094</ele>
        <time>2021-12-18T09:14:21+01:00</time>
      </trkpt>
      <trkpt lat="42.94193" lon="0.28062">
        <ele>1098</ele>
        <time>2021-12-18T09:14:40+01:00</time>
      </trkpt>
      <trkpt lat="42.94173" lon="0.28079">
        <ele>1099</ele>
        <time>2021-12-18T09:14:57+01:00</time>
      </trkpt>
      <trkpt lat="42.94154" lon="0.28094">
        <ele>1100</ele>
        <time>2021-12-18T09:15:12+01:00</time>
      </trkpt>
      <trkpt lat="42.94134" lon="0.28109">
        <ele>1100</ele>
        <time>2021-12-18T09:15:28+01:00</time>
      </trkpt>
      <trkpt lat="42.94116" lon="0.28129">
        <ele>1101</ele>
        <time>2021-12-18T09:15:47+01:00</time>
      </trkpt>
      <trkpt lat="42.94101" lon="0.28152">
        <ele>1103</ele>
        <time>2021-12-18T09:16:42+01:00</time>
      </trkpt>
      <trkpt lat="42.94089" lon="0.28179">
        <ele>1104</ele>
        <time>2021-12-18T09:17:03+01:00</time>
      </trkpt>
      <trkpt lat="42.94078" lon="0.28208">
        <ele>1105</ele>
        <time>2021-12-18T09:17:26+01:00</time>
      </trkpt>
      <trkpt lat="42.94062" lon="0.28231">
        <ele>1105</ele>
        <time>2021-12-18T09:17:47+01:00</time>
      </trkpt>
      <trkpt lat="42.94046" lon="0.28255">
        <ele>1105</ele>
        <time>2021-12-18T09:18:05+01:00</time>
      </trkpt>
      <trkpt lat="42.94028" lon="0.28275">
        <ele>1105</ele>
        <time>2021-12-18T09:18:20+01:00</time>
      </trkpt>
      <trkpt lat="42.94011" lon="0.28297">
        <ele>1106</ele>
        <time>2021-12-18T09:18:38+01:00</time>
      </trkpt>
      <trkpt lat="42.93997" lon="0.28321">
        <ele>1108</ele>
        <time>2021-12-18T09:23:31+01:00</time>
      </trkpt>
      <trkpt lat="42.93982" lon="0.28346">
        <ele>1109</ele>
        <time>2021-12-18T09:23:51+01:00</time>
      </trkpt>
      <trkpt lat="42.93967" lon="0.28371">
        <ele>1110</ele>
        <time>2021-12-18T09:24:31+01:00</time>
      </trkpt>
      <trkpt lat="42.93952" lon="0.28395">
        <ele>1111</ele>
        <time>2021-12-18T09:24:49+01:00</time>
      </trkpt>
      <trkpt lat="42.93939" lon="0.2842">
        <ele>1111</ele>
        <time>2021-12-18T09:25:08+01:00</time>
      </trkpt>
      <trkpt lat="42.93923" lon="0.28444">
        <ele>1112</ele>
        <time>2021-12-18T09:25:26+01:00</time>
      </trkpt>
      <trkpt lat="42.9391" lon="0.2847">
        <ele>1112</ele>
        <time>2021-12-18T09:25:44+01:00</time>
      </trkpt>
      <trkpt lat="42.93897" lon="0.28496">
        <ele>1113</ele>
        <time>2021-12-18T09:26:03+01:00</time>
      </trkpt>
      <trkpt lat="42.93884" lon="0.28523">
        <ele>1113</ele>
        <time>2021-12-18T09:26:22+01:00</time>
      </trkpt>
      <trkpt lat="42.9387" lon="0.28549">
        <ele>1113</ele>
        <time>2021-12-18T09:26:43+01:00</time>
      </trkpt>
      <trkpt lat="42.93854" lon="0.28571">
        <ele>1113</ele>
        <time>2021-12-18T09:27:07+01:00</time>
      </trkpt>
      <trkpt lat="42.93838" lon="0.28594">
        <ele>1114</ele>
        <time>2021-12-18T09:27:26+01:00</time>
      </trkpt>
      <trkpt lat="42.93823" lon="0.28618">
        <ele>1115</ele>
        <time>2021-12-18T09:27:49+01:00</time>
      </trkpt>
      <trkpt lat="42.93808" lon="0.28641">
        <ele>1116</ele>
        <time>2021-12-18T09:28:07+01:00</time>
      </trkpt>
      <trkpt lat="42.93792" lon="0.28663">
        <ele>1117</ele>
        <time>2021-12-18T09:28:26+01:00</time>
      </trkpt>
      <trkpt lat="42.93776" lon="0.28685">
        <ele>1118</ele>
        <time>2021-12-18T09:28:47+01:00</time>
      </trkpt>
      <trkpt lat="42.93759" lon="0.28708">
        <ele>1119</ele>
        <time>2021-12-18T09:29:06+01:00</time>
      </trkpt>
      <trkpt lat="42.93745" lon="0.28732">
        <ele>1119</ele>
        <time>2021-12-18T09:29:24+01:00</time>
      </trkpt>
      <trkpt lat="42.9373" lon="0.28758">
        <ele>1120</ele>
        <time>2021-12-18T09:29:44+01:00</time>
      </trkpt>
      <trkpt lat="42.93714" lon="0.28781">
        <ele>1120</ele>
        <time>2021-12-18T09:30:03+01:00</time>
      </trkpt>
      <trkpt lat="42.93697" lon="0.28803">
        <ele>1121</ele>
        <time>2021-12-18T09:30:24+01:00</time>
      </trkpt>
      <trkpt lat="42.93681" lon="0.28824">
        <ele>1123</ele>
        <time>2021-12-18T09:30:44+01:00</time>
      </trkpt>
      <trkpt lat="42.93666" lon="0.28849">
        <ele>1124</ele>
        <time>2021-12-18T09:31:04+01:00</time>
      </trkpt>
      <trkpt lat="42.93653" lon="0.28875">
        <ele>1124</ele>
        <time>2021-12-18T09:31:24+01:00</time>
      </trkpt>
      <trkpt lat="42.9364" lon="0.28901">
        <ele>1124</ele>
        <time>2021-12-18T09:31:43+01:00</time>
      </trkpt>
      <trkpt lat="42.93628" lon="0.28927">
        <ele>1123</ele>
        <time>2021-12-18T09:32:08+01:00</time>
      </trkpt>
      <trkpt lat="42.93611" lon="0.2895">
        <ele>1123</ele>
        <time>2021-12-18T09:32:26+01:00</time>
      </trkpt>
      <trkpt lat="42.93601" lon="0.28977">
        <ele>1123</ele>
        <time>2021-12-18T09:32:47+01:00</time>
      </trkpt>
      <trkpt lat="42.93587" lon="0.29003">
        <ele>1124</ele>
        <time>2021-12-18T09:33:06+01:00</time>
      </trkpt>
      <trkpt lat="42.93574" lon="0.29029">
        <ele>1125</ele>
        <time>2021-12-18T09:33:26+01:00</time>
      </trkpt>
      <trkpt lat="42.93562" lon="0.29055">
        <ele>1126</ele>
        <time>2021-12-18T09:33:49+01:00</time>
      </trkpt>
      <trkpt lat="42.93548" lon="0.2908">
        <ele>1127</ele>
        <time>2021-12-18T09:34:10+01:00</time>
      </trkpt>
      <trkpt lat="42.93529" lon="0.29097">
        <ele>1129</ele>
        <time>2021-12-18T09:34:30+01:00</time>
      </trkpt>
      <trkpt lat="42.9351" lon="0.29115">
        <ele>1130</ele>
        <time>2021-12-18T09:34:51+01:00</time>
      </trkpt>
      <trkpt lat="42.93495" lon="0.29139">
        <ele>1130</ele>
        <time>2021-12-18T09:35:17+01:00</time>
      </trkpt>
      <trkpt lat="42.93486" lon="0.29168">
        <ele>1131</ele>
        <time>2021-12-18T09:35:35+01:00</time>
      </trkpt>
      <trkpt lat="42.93476" lon="0.29196">
        <ele>1132</ele>
        <time>2021-12-18T09:36:01+01:00</time>
      </trkpt>
      <trkpt lat="42.93463" lon="0.29222">
        <ele>1132</ele>
        <time>2021-12-18T09:36:21+01:00</time>
      </trkpt>
      <trkpt lat="42.93452" lon="0.2925">
        <ele>1133</ele>
        <time>2021-12-18T09:36:42+01:00</time>
      </trkpt>
      <trkpt lat="42.93444" lon="0.29279">
        <ele>1134</ele>
        <time>2021-12-18T09:37:02+01:00</time>
      </trkpt>
      <trkpt lat="42.93441" lon="0.29309">
        <ele>1134</ele>
        <time>2021-12-18T09:37:31+01:00</time>
      </trkpt>
      <trkpt lat="42.93418" lon="0.29306">
        <ele>1135</ele>
        <time>2021-12-18T09:37:55+01:00</time>
      </trkpt>
      <trkpt lat="42.93395" lon="0.29312">
        <ele>1137</ele>
        <time>2021-12-18T09:38:19+01:00</time>
      </trkpt>
      <trkpt lat="42.93373" lon="0.29323">
        <ele>1138</ele>
        <time>2021-12-18T09:38:49+01:00</time>
      </trkpt>
      <trkpt lat="42.93352" lon="0.29334">
        <ele>1139</ele>
        <time>2021-12-18T09:39:14+01:00</time>
      </trkpt>
      <trkpt lat="42.93332" lon="0.29347">
        <ele>1141</ele>
        <time>2021-12-18T09:39:39+01:00</time>
      </trkpt>
      <trkpt lat="42.93323" lon="0.29318">
        <ele>1142</ele>
        <time>2021-12-18T09:40:14+01:00</time>
      </trkpt>
      <trkpt lat="42.93301" lon="0.29308">
        <ele>1143</ele>
        <time>2021-12-18T09:40:36+01:00</time>
      </trkpt>
      <trkpt lat="42.93278" lon="0.29313">
        <ele>1144</ele>
        <time>2021-12-18T09:40:57+01:00</time>
      </trkpt>
      <trkpt lat="42.93257" lon="0.29323">
        <ele>1147</ele>
        <time>2021-12-18T09:41:16+01:00</time>
      </trkpt>
      <trkpt lat="42.93261" lon="0.29354">
        <ele>1149</ele>
        <time>2021-12-18T09:41:42+01:00</time>
      </trkpt>
      <trkpt lat="42.9328" lon="0.29372">
        <ele>1150</ele>
        <time>2021-12-18T09:42:13+01:00</time>
      </trkpt>
      <trkpt lat="42.93299" lon="0.2939">
        <ele>1151</ele>
        <time>2021-12-18T09:42:46+01:00</time>
      </trkpt>
      <trkpt lat="42.93318" lon="0.29407">
        <ele>1149</ele>
        <time>2021-12-18T09:43:04+01:00</time>
      </trkpt>
      <trkpt lat="42.93334" lon="0.2943">
        <ele>1147</ele>
        <time>2021-12-18T09:43:39+01:00</time>
      </trkpt>
      <trkpt lat="42.93349" lon="0.29454">
        <ele>1144</ele>
        <time>2021-12-18T09:44:00+01:00</time>
      </trkpt>
      <trkpt lat="42.9336" lon="0.29481">
        <ele>1141</ele>
        <time>2021-12-18T09:44:19+01:00</time>
      </trkpt>
      <trkpt lat="42.93368" lon="0.29511">
        <ele>1138</ele>
        <time>2021-12-18T09:44:42+01:00</time>
      </trkpt>
      <trkpt lat="42.93364" lon="0.29542">
        <ele>1136</ele>
        <time>2021-12-18T09:45:36+01:00</time>
      </trkpt>
      <trkpt lat="42.93347" lon="0.29564">
        <ele>1136</ele>
        <time>2021-12-18T09:45:55+01:00</time>
      </trkpt>
      <trkpt lat="42.93331" lon="0.29587">
        <ele>1136</ele>
        <time>2021-12-18T09:46:15+01:00</time>
      </trkpt>
      <trkpt lat="42.93319" lon="0.29615">
        <ele>1136</ele>
        <time>2021-12-18T09:46:37+01:00</time>
      </trkpt>
      <trkpt lat="42.93309" lon="0.29643">
        <ele>1136</ele>
        <time>2021-12-18T09:46:59+01:00</time>
      </trkpt>
      <trkpt lat="42.93292" lon="0.29663">
        <ele>1136</ele>
        <time>2021-12-18T09:47:26+01:00</time>
      </trkpt>
      <trkpt lat="42.93272" lon="0.29681">
        <ele>1136</ele>
        <time>2021-12-18T09:47:46+01:00</time>
      </trkpt>
      <trkpt lat="42.93257" lon="0.29705">
        <ele>1136</ele>
        <time>2021-12-18T09:48:05+01:00</time>
      </trkpt>
      <trkpt lat="42.93255" lon="0.29735">
        <ele>1136</ele>
        <time>2021-12-18T09:48:32+01:00</time>
      </trkpt>
      <trkpt lat="42.9327" lon="0.29757">
        <ele>1138</ele>
        <time>2021-12-18T09:48:52+01:00</time>
      </trkpt>
      <trkpt lat="42.93293" lon="0.29765">
        <ele>1140</ele>
        <time>2021-12-18T09:49:14+01:00</time>
      </trkpt>
      <trkpt lat="42.93316" lon="0.29769">
        <ele>1143</ele>
        <time>2021-12-18T09:49:33+01:00</time>
      </trkpt>
      <trkpt lat="42.93339" lon="0.29772">
        <ele>1144</ele>
        <time>2021-12-18T09:49:53+01:00</time>
      </trkpt>
      <trkpt lat="42.93361" lon="0.2978">
        <ele>1145</ele>
        <time>2021-12-18T09:50:16+01:00</time>
      </trkpt>
      <trkpt lat="42.93378" lon="0.29799">
        <ele>1147</ele>
        <time>2021-12-18T09:50:37+01:00</time>
      </trkpt>
      <trkpt lat="42.93394" lon="0.29824">
        <ele>1149</ele>
        <time>2021-12-18T09:51:23+01:00</time>
      </trkpt>
      <trkpt lat="42.93406" lon="0.2985">
        <ele>1153</ele>
        <time>2021-12-18T09:51:43+01:00</time>
      </trkpt>
      <trkpt lat="42.93423" lon="0.2987">
        <ele>1152</ele>
        <time>2021-12-18T09:52:03+01:00</time>
      </trkpt>
      <trkpt lat="42.93441" lon="0.2989">
        <ele>1148</ele>
        <time>2021-12-18T09:52:21+01:00</time>
      </trkpt>
      <trkpt lat="42.93456" lon="0.29914">
        <ele>1144</ele>
        <time>2021-12-18T09:52:42+01:00</time>
      </trkpt>
      <trkpt lat="42.93468" lon="0.29941">
        <ele>1142</ele>
        <time>2021-12-18T09:53:17+01:00</time>
      </trkpt>
      <trkpt lat="42.93477" lon="0.29971">
        <ele>1147</ele>
        <time>2021-12-18T09:53:46+01:00</time>
      </trkpt>
      <trkpt lat="42.93493" lon="0.29993">
        <ele>1150</ele>
        <time>2021-12-18T09:54:07+01:00</time>
      </trkpt>
      <trkpt lat="42.93506" lon="0.30019">
        <ele>1151</ele>
        <time>2021-12-18T09:54:28+01:00</time>
      </trkpt>
      <trkpt lat="42.93512" lon="0.30049">
        <ele>1151</ele>
        <time>2021-12-18T09:54:53+01:00</time>
      </trkpt>
      <trkpt lat="42.93527" lon="0.30073">
        <ele>1139</ele>
        <time>2021-12-18T09:55:19+01:00</time>
      </trkpt>
      <trkpt lat="42.93548" lon="0.30088">
        <ele>1138</ele>
        <time>2021-12-18T09:55:41+01:00</time>
      </trkpt>
      <trkpt lat="42.93564" lon="0.3011">
        <ele>1139</ele>
        <time>2021-12-18T09:56:04+01:00</time>
      </trkpt>
      <trkpt lat="42.93582" lon="0.30131">
        <ele>1140</ele>
        <time>2021-12-18T09:56:25+01:00</time>
      </trkpt>
      <trkpt lat="42.93597" lon="0.30155">
        <ele>1143</ele>
        <time>2021-12-18T09:56:57+01:00</time>
      </trkpt>
      <trkpt lat="42.93611" lon="0.3018">
        <ele>1146</ele>
        <time>2021-12-18T09:57:24+01:00</time>
      </trkpt>
      <trkpt lat="42.93624" lon="0.30205">
        <ele>1150</ele>
        <time>2021-12-18T09:57:48+01:00</time>
      </trkpt>
      <trkpt lat="42.93634" lon="0.30233">
        <ele>1151</ele>
        <time>2021-12-18T09:58:08+01:00</time>
      </trkpt>
      <trkpt lat="42.93642" lon="0.30262">
        <ele>1154</ele>
        <time>2021-12-18T09:58:39+01:00</time>
      </trkpt>
      <trkpt lat="42.93661" lon="0.30279">
        <ele>1152</ele>
        <time>2021-12-18T09:59:03+01:00</time>
      </trkpt>
      <trkpt lat="42.93678" lon="0.30299">
        <ele>1152</ele>
        <time>2021-12-18T09:59:43+01:00</time>
      </trkpt>
      <trkpt lat="42.93693" lon="0.30324">
        <ele>1152</ele>
        <time>2021-12-18T10:00:06+01:00</time>
      </trkpt>
      <trkpt lat="42.93704" lon="0.30352">
        <ele>1153</ele>
        <time>2021-12-18T10:00:29+01:00</time>
      </trkpt>
      <trkpt lat="42.93719" lon="0.30377">
        <ele>1152</ele>
        <time>2021-12-18T10:00:52+01:00</time>
      </trkpt>
      <trkpt lat="42.93731" lon="0.30403">
        <ele>1152</ele>
        <time>2021-12-18T10:01:18+01:00</time>
      </trkpt>
      <trkpt lat="42.93738" lon="0.30432">
        <ele>1152</ele>
        <time>2021-12-18T10:01:41+01:00</time>
      </trkpt>
      <trkpt lat="42.93744" lon="0.30463">
        <ele>1152</ele>
        <time>2021-12-18T10:02:05+01:00</time>
      </trkpt>
      <trkpt lat="42.93751" lon="0.30493">
        <ele>1152</ele>
        <time>2021-12-18T10:02:27+01:00</time>
      </trkpt>
      <trkpt lat="42.9376" lon="0.30522">
        <ele>1155</ele>
        <time>2021-12-18T10:02:48+01:00</time>
      </trkpt>
      <trkpt lat="42.93764" lon="0.30552">
        <ele>1156</ele>
        <time>2021-12-18T10:03:19+01:00</time>
      </trkpt>
      <trkpt lat="42.93771" lon="0.30581">
        <ele>1158</ele>
        <time>2021-12-18T10:03:45+01:00</time>
      </trkpt>
      <trkpt lat="42.93781" lon="0.30609">
        <ele>1158</ele>
        <time>2021-12-18T10:04:08+01:00</time>
      </trkpt>
      <trkpt lat="42.93782" lon="0.30641">
        <ele>1158</ele>
        <time>2021-12-18T10:04:43+01:00</time>
      </trkpt>
      <trkpt lat="42.93783" lon="0.30673">
        <ele>1159</ele>
        <time>2021-12-18T10:05:07+01:00</time>
      </trkpt>
      <trkpt lat="42.93784" lon="0.30704">
        <ele>1162</ele>
        <time>2021-12-18T10:05:29+01:00</time>
      </trkpt>
      <trkpt lat="42.9378" lon="0.30736">
        <ele>1166</ele>
        <time>2021-12-18T10:06:13+01:00</time>
      </trkpt>
      <trkpt lat="42.93777" lon="0.30766">
        <ele>1171</ele>
        <time>2021-12-18T10:06:36+01:00</time>
      </trkpt>
      <trkpt lat="42.93766" lon="0.30793">
        <ele>1173</ele>
        <time>2021-12-18T10:06:58+01:00</time>
      </trkpt>
      <trkpt lat="42.93759" lon="0.30823">
        <ele>1174</ele>
        <time>2021-12-18T10:07:26+01:00</time>
      </trkpt>
      <trkpt lat="42.93751" lon="0.30852">
        <ele>1172</ele>
        <time>2021-12-18T10:07:49+01:00</time>
      </trkpt>
      <trkpt lat="42.9375" lon="0.30883">
        <ele>1174</ele>
        <time>2021-12-18T10:08:13+01:00</time>
      </trkpt>
      <trkpt lat="42.93748" lon="0.30913">
        <ele>1176</ele>
        <time>2021-12-18T10:08:32+01:00</time>
      </trkpt>
      <trkpt lat="42.93752" lon="0.30944">
        <ele>1179</ele>
        <time>2021-12-18T10:08:53+01:00</time>
      </trkpt>
      <trkpt lat="42.93765" lon="0.3097">
        <ele>1182</ele>
        <time>2021-12-18T10:10:11+01:00</time>
      </trkpt>
      <trkpt lat="42.93776" lon="0.30998">
        <ele>1183</ele>
        <time>2021-12-18T10:10:35+01:00</time>
      </trkpt>
      <trkpt lat="42.93791" lon="0.31022">
        <ele>1188</ele>
        <time>2021-12-18T10:10:54+01:00</time>
      </trkpt>
      <trkpt lat="42.93804" lon="0.31048">
        <ele>1191</ele>
        <time>2021-12-18T10:11:14+01:00</time>
      </trkpt>
      <trkpt lat="42.93814" lon="0.31076">
        <ele>1194</ele>
        <time>2021-12-18T10:11:33+01:00</time>
      </trkpt>
      <trkpt lat="42.93831" lon="0.31098">
        <ele>1192</ele>
        <time>2021-12-18T10:12:06+01:00</time>
      </trkpt>
      <trkpt lat="42.93843" lon="0.31125">
        <ele>1195</ele>
        <time>2021-12-18T10:12:26+01:00</time>
      </trkpt>
      <trkpt lat="42.93854" lon="0.31153">
        <ele>1197</ele>
        <time>2021-12-18T10:12:48+01:00</time>
      </trkpt>
      <trkpt lat="42.93862" lon="0.31183">
        <ele>1199</ele>
        <time>2021-12-18T10:13:14+01:00</time>
      </trkpt>
      <trkpt lat="42.93867" lon="0.31213">
        <ele>1206</ele>
        <time>2021-12-18T10:13:34+01:00</time>
      </trkpt>
      <trkpt lat="42.93875" lon="0.31243">
        <ele>1214</ele>
        <time>2021-12-18T10:14:02+01:00</time>
      </trkpt>
      <trkpt lat="42.93886" lon="0.3127">
        <ele>1218</ele>
        <time>2021-12-18T10:14:26+01:00</time>
      </trkpt>
      <trkpt lat="42.93898" lon="0.31298">
        <ele>1219</ele>
        <time>2021-12-18T10:14:50+01:00</time>
      </trkpt>
      <trkpt lat="42.93906" lon="0.31328">
        <ele>1220</ele>
        <time>2021-12-18T10:15:14+01:00</time>
      </trkpt>
      <trkpt lat="42.93913" lon="0.31358">
        <ele>1223</ele>
        <time>2021-12-18T10:15:37+01:00</time>
      </trkpt>
      <trkpt lat="42.93926" lon="0.31384">
        <ele>1225</ele>
        <time>2021-12-18T10:16:01+01:00</time>
      </trkpt>
      <trkpt lat="42.93947" lon="0.31398">
        <ele>1221</ele>
        <time>2021-12-18T10:16:35+01:00</time>
      </trkpt>
      <trkpt lat="42.93968" lon="0.31407">
        <ele>1221</ele>
        <time>2021-12-18T10:16:55+01:00</time>
      </trkpt>
      <trkpt lat="42.93991" lon="0.31403">
        <ele>1223</ele>
        <time>2021-12-18T10:17:25+01:00</time>
      </trkpt>
      <trkpt lat="42.94013" lon="0.31392">
        <ele>1224</ele>
        <time>2021-12-18T10:17:53+01:00</time>
      </trkpt>
      <trkpt lat="42.94037" lon="0.3139">
        <ele>1229</ele>
        <time>2021-12-18T10:18:19+01:00</time>
      </trkpt>
      <trkpt lat="42.9406" lon="0.31385">
        <ele>1234</ele>
        <time>2021-12-18T10:18:41+01:00</time>
      </trkpt>
      <trkpt lat="42.94082" lon="0.31386">
        <ele>1239</ele>
        <time>2021-12-18T10:19:40+01:00</time>
      </trkpt>
      <trkpt lat="42.94106" lon="0.31386">
        <ele>1243</ele>
        <time>2021-12-18T10:20:21+01:00</time>
      </trkpt>
      <trkpt lat="42.94129" lon="0.31385">
        <ele>1247</ele>
        <time>2021-12-18T10:21:05+01:00</time>
      </trkpt>
      <trkpt lat="42.94147" lon="0.31404">
        <ele>1254</ele>
        <time>2021-12-18T10:21:39+01:00</time>
      </trkpt>
      <trkpt lat="42.94162" lon="0.31427">
        <ele>1260</ele>
        <time>2021-12-18T10:22:10+01:00</time>
      </trkpt>
      <trkpt lat="42.94141" lon="0.31437">
        <ele>1263</ele>
        <time>2021-12-18T10:23:21+01:00</time>
      </trkpt>
      <trkpt lat="42.9412" lon="0.31451">
        <ele>1266</ele>
        <time>2021-12-18T10:23:51+01:00</time>
      </trkpt>
      <trkpt lat="42.94098" lon="0.31461">
        <ele>1268</ele>
        <time>2021-12-18T10:24:11+01:00</time>
      </trkpt>
      <trkpt lat="42.9408" lon="0.3148">
        <ele>1273</ele>
        <time>2021-12-18T10:24:37+01:00</time>
      </trkpt>
      <trkpt lat="42.94068" lon="0.31506">
        <ele>1279</ele>
        <time>2021-12-18T10:25:24+01:00</time>
      </trkpt>
      <trkpt lat="42.94051" lon="0.31528">
        <ele>1281</ele>
        <time>2021-12-18T10:25:54+01:00</time>
      </trkpt>
      <trkpt lat="42.94042" lon="0.31556">
        <ele>1287</ele>
        <time>2021-12-18T10:26:27+01:00</time>
      </trkpt>
      <trkpt lat="42.94065" lon="0.3156">
        <ele>1299</ele>
        <time>2021-12-18T10:27:28+01:00</time>
      </trkpt>
      <trkpt lat="42.94088" lon="0.31562">
        <ele>1307</ele>
        <time>2021-12-18T10:28:07+01:00</time>
      </trkpt>
      <trkpt lat="42.9411" lon="0.31573">
        <ele>1314</ele>
        <time>2021-12-18T10:28:44+01:00</time>
      </trkpt>
      <trkpt lat="42.9413" lon="0.31588">
        <ele>1318</ele>
        <time>2021-12-18T10:30:01+01:00</time>
      </trkpt>
      <trkpt lat="42.94146" lon="0.31611">
        <ele>1325</ele>
        <time>2021-12-18T10:30:46+01:00</time>
      </trkpt>
      <trkpt lat="42.94162" lon="0.31634">
        <ele>1332</ele>
        <time>2021-12-18T10:31:16+01:00</time>
      </trkpt>
      <trkpt lat="42.94176" lon="0.31658">
        <ele>1341</ele>
        <time>2021-12-18T10:31:48+01:00</time>
      </trkpt>
      <trkpt lat="42.94153" lon="0.31666">
        <ele>1353</ele>
        <time>2021-12-18T10:33:24+01:00</time>
      </trkpt>
      <trkpt lat="42.9413" lon="0.31674">
        <ele>1358</ele>
        <time>2021-12-18T10:34:02+01:00</time>
      </trkpt>
      <trkpt lat="42.94115" lon="0.31697">
        <ele>1366</ele>
        <time>2021-12-18T10:35:28+01:00</time>
      </trkpt>
      <trkpt lat="42.94126" lon="0.31724">
        <ele>1374</ele>
        <time>2021-12-18T10:36:11+01:00</time>
      </trkpt>
      <trkpt lat="42.94142" lon="0.31746">
        <ele>1380</ele>
        <time>2021-12-18T10:36:56+01:00</time>
      </trkpt>
      <trkpt lat="42.94154" lon="0.31772">
        <ele>1386</ele>
        <time>2021-12-18T10:37:57+01:00</time>
      </trkpt>
      <trkpt lat="42.94148" lon="0.31802">
        <ele>1396</ele>
        <time>2021-12-18T10:40:06+01:00</time>
      </trkpt>
      <trkpt lat="42.94126" lon="0.31809">
        <ele>1400</ele>
        <time>2021-12-18T10:42:01+01:00</time>
      </trkpt>
      <trkpt lat="42.94107" lon="0.31826">
        <ele>1406</ele>
        <time>2021-12-18T10:42:39+01:00</time>
      </trkpt>
      <trkpt lat="42.94094" lon="0.31852">
        <ele>1413</ele>
        <time>2021-12-18T10:43:21+01:00</time>
      </trkpt>
      <trkpt lat="42.94102" lon="0.31881">
        <ele>1426</ele>
        <time>2021-12-18T10:50:14+01:00</time>
      </trkpt>
      <trkpt lat="42.94118" lon="0.31904">
        <ele>1434</ele>
        <time>2021-12-18T10:50:48+01:00</time>
      </trkpt>
      <trkpt lat="42.94133" lon="0.31927">
        <ele>1439</ele>
        <time>2021-12-18T10:51:26+01:00</time>
      </trkpt>
      <trkpt lat="42.94146" lon="0.31952">
        <ele>1443</ele>
        <time>2021-12-18T10:52:03+01:00</time>
      </trkpt>
      <trkpt lat="42.94156" lon="0.31981">
        <ele>1447</ele>
        <time>2021-12-18T10:52:51+01:00</time>
      </trkpt>
      <trkpt lat="42.9416" lon="0.32013">
        <ele>1452</ele>
        <time>2021-12-18T10:53:23+01:00</time>
      </trkpt>
      <trkpt lat="42.94166" lon="0.32043">
        <ele>1453</ele>
        <time>2021-12-18T10:53:50+01:00</time>
      </trkpt>
      <trkpt lat="42.94173" lon="0.32073">
        <ele>1450</ele>
        <time>2021-12-18T10:54:25+01:00</time>
      </trkpt>
      <trkpt lat="42.94179" lon="0.32103">
        <ele>1445</ele>
        <time>2021-12-18T10:54:48+01:00</time>
      </trkpt>
      <trkpt lat="42.94175" lon="0.32134">
        <ele>1448</ele>
        <time>2021-12-18T10:55:12+01:00</time>
      </trkpt>
      <trkpt lat="42.94179" lon="0.32165">
        <ele>1446</ele>
        <time>2021-12-18T10:55:47+01:00</time>
      </trkpt>
      <trkpt lat="42.94183" lon="0.32196">
        <ele>1448</ele>
        <time>2021-12-18T10:56:16+01:00</time>
      </trkpt>
      <trkpt lat="42.94188" lon="0.32226">
        <ele>1449</ele>
        <time>2021-12-18T10:56:42+01:00</time>
      </trkpt>
      <trkpt lat="42.94189" lon="0.32257">
        <ele>1452</ele>
        <time>2021-12-18T10:57:08+01:00</time>
      </trkpt>
      <trkpt lat="42.94191" lon="0.32288">
        <ele>1457</ele>
        <time>2021-12-18T10:57:54+01:00</time>
      </trkpt>
      <trkpt lat="42.94197" lon="0.32318">
        <ele>1457</ele>
        <time>2021-12-18T10:58:27+01:00</time>
      </trkpt>
      <trkpt lat="42.94198" lon="0.32349">
        <ele>1460</ele>
        <time>2021-12-18T10:58:56+01:00</time>
      </trkpt>
      <trkpt lat="42.94204" lon="0.32379">
        <ele>1461</ele>
        <time>2021-12-18T10:59:56+01:00</time>
      </trkpt>
      <trkpt lat="42.94205" lon="0.3241">
        <ele>1463</ele>
        <time>2021-12-18T11:00:20+01:00</time>
      </trkpt>
      <trkpt lat="42.94207" lon="0.32442">
        <ele>1466</ele>
        <time>2021-12-18T11:01:04+01:00</time>
      </trkpt>
      <trkpt lat="42.94208" lon="0.32472">
        <ele>1469</ele>
        <time>2021-12-18T11:01:33+01:00</time>
      </trkpt>
      <trkpt lat="42.94209" lon="0.32503">
        <ele>1473</ele>
        <time>2021-12-18T11:02:11+01:00</time>
      </trkpt>
      <trkpt lat="42.94188" lon="0.32512">
        <ele>1482</ele>
        <time>2021-12-18T11:03:51+01:00</time>
      </trkpt>
      <trkpt lat="42.94168" lon="0.32528">
        <ele>1491</ele>
        <time>2021-12-18T11:05:23+01:00</time>
      </trkpt>
      <trkpt lat="42.94166" lon="0.3256">
        <ele>1493</ele>
        <time>2021-12-18T11:06:19+01:00</time>
      </trkpt>
      <trkpt lat="42.94171" lon="0.32591">
        <ele>1494</ele>
        <time>2021-12-18T11:07:12+01:00</time>
      </trkpt>
      <trkpt lat="42.94169" lon="0.32621">
        <ele>1496</ele>
        <time>2021-12-18T11:07:41+01:00</time>
      </trkpt>
      <trkpt lat="42.94163" lon="0.32651">
        <ele>1498</ele>
        <time>2021-12-18T11:08:04+01:00</time>
      </trkpt>
      <trkpt lat="42.94147" lon="0.32674">
        <ele>1500</ele>
        <time>2021-12-18T11:08:35+01:00</time>
      </trkpt>
      <trkpt lat="42.94125" lon="0.32669">
        <ele>1503</ele>
        <time>2021-12-18T11:09:17+01:00</time>
      </trkpt>
      <trkpt lat="42.94124" lon="0.32638">
        <ele>1507</ele>
        <time>2021-12-18T11:14:28+01:00</time>
      </trkpt>
      <trkpt lat="42.94114" lon="0.3261">
        <ele>1512</ele>
        <time>2021-12-18T11:14:56+01:00</time>
      </trkpt>
      <trkpt lat="42.94101" lon="0.32584">
        <ele>1518</ele>
        <time>2021-12-18T11:15:28+01:00</time>
      </trkpt>
      <trkpt lat="42.94088" lon="0.32559">
        <ele>1522</ele>
        <time>2021-12-18T11:16:03+01:00</time>
      </trkpt>
      <trkpt lat="42.94081" lon="0.32529">
        <ele>1527</ele>
        <time>2021-12-18T11:16:41+01:00</time>
      </trkpt>
      <trkpt lat="42.94068" lon="0.32504">
        <ele>1534</ele>
        <time>2021-12-18T11:17:27+01:00</time>
      </trkpt>
      <trkpt lat="42.94064" lon="0.32472">
        <ele>1538</ele>
        <time>2021-12-18T11:18:06+01:00</time>
      </trkpt>
      <trkpt lat="42.94061" lon="0.3244">
        <ele>1541</ele>
        <time>2021-12-18T11:18:55+01:00</time>
      </trkpt>
      <trkpt lat="42.94046" lon="0.32417">
        <ele>1550</ele>
        <time>2021-12-18T11:20:08+01:00</time>
      </trkpt>
      <trkpt lat="42.94038" lon="0.32387">
        <ele>1554</ele>
        <time>2021-12-18T11:21:00+01:00</time>
      </trkpt>
      <trkpt lat="42.9402" lon="0.32367">
        <ele>1559</ele>
        <time>2021-12-18T11:23:14+01:00</time>
      </trkpt>
      <trkpt lat="42.93997" lon="0.32367">
        <ele>1564</ele>
        <time>2021-12-18T11:23:54+01:00</time>
      </trkpt>
      <trkpt lat="42.93974" lon="0.32367">
        <ele>1570</ele>
        <time>2021-12-18T11:24:20+01:00</time>
      </trkpt>
      <trkpt lat="42.93951" lon="0.32366">
        <ele>1575</ele>
        <time>2021-12-18T11:25:21+01:00</time>
      </trkpt>
      <trkpt lat="42.93928" lon="0.32362">
        <ele>1579</ele>
        <time>2021-12-18T11:25:48+01:00</time>
      </trkpt>
      <trkpt lat="42.93905" lon="0.32359">
        <ele>1587</ele>
        <time>2021-12-18T11:26:17+01:00</time>
      </trkpt>
      <trkpt lat="42.93882" lon="0.32357">
        <ele>1597</ele>
        <time>2021-12-18T11:28:11+01:00</time>
      </trkpt>
      <trkpt lat="42.93862" lon="0.32342">
        <ele>1601</ele>
        <time>2021-12-18T11:28:33+01:00</time>
      </trkpt>
      <trkpt lat="42.93841" lon="0.32329">
        <ele>1603</ele>
        <time>2021-12-18T11:28:58+01:00</time>
      </trkpt>
      <trkpt lat="42.93821" lon="0.32315">
        <ele>1606</ele>
        <time>2021-12-18T11:29:22+01:00</time>
      </trkpt>
      <trkpt lat="42.93801" lon="0.32299">
        <ele>1609</ele>
        <time>2021-12-18T11:29:48+01:00</time>
      </trkpt>
      <trkpt lat="42.93779" lon="0.32288">
        <ele>1613</ele>
        <time>2021-12-18T11:30:31+01:00</time>
      </trkpt>
      <trkpt lat="42.93758" lon="0.32276">
        <ele>1614</ele>
        <time>2021-12-18T11:30:52+01:00</time>
      </trkpt>
      <trkpt lat="42.93736" lon="0.32269">
        <ele>1614</ele>
        <time>2021-12-18T11:31:14+01:00</time>
      </trkpt>
      <trkpt lat="42.93712" lon="0.32269">
        <ele>1614</ele>
        <time>2021-12-18T11:31:42+01:00</time>
      </trkpt>
      <trkpt lat="42.93689" lon="0.32271">
        <ele>1614</ele>
        <time>2021-12-18T11:32:04+01:00</time>
      </trkpt>
      <trkpt lat="42.93666" lon="0.32275">
        <ele>1614</ele>
        <time>2021-12-18T11:32:25+01:00</time>
      </trkpt>
      <trkpt lat="42.93644" lon="0.32281">
        <ele>1615</ele>
        <time>2021-12-18T11:32:45+01:00</time>
      </trkpt>
      <trkpt lat="42.93622" lon="0.32283">
        <ele>1616</ele>
        <time>2021-12-18T11:33:18+01:00</time>
      </trkpt>
      <trkpt lat="42.93599" lon="0.32282">
        <ele>1619</ele>
        <time>2021-12-18T11:34:21+01:00</time>
      </trkpt>
      <trkpt lat="42.93576" lon="0.32275">
        <ele>1622</ele>
        <time>2021-12-18T11:34:51+01:00</time>
      </trkpt>
      <trkpt lat="42.93555" lon="0.32263">
        <ele>1623</ele>
        <time>2021-12-18T11:35:25+01:00</time>
      </trkpt>
      <trkpt lat="42.93533" lon="0.32253">
        <ele>1626</ele>
        <time>2021-12-18T11:36:02+01:00</time>
      </trkpt>
      <trkpt lat="42.93513" lon="0.32237">
        <ele>1624</ele>
        <time>2021-12-18T11:36:25+01:00</time>
      </trkpt>
      <trkpt lat="42.93493" lon="0.32223">
        <ele>1622</ele>
        <time>2021-12-18T11:36:45+01:00</time>
      </trkpt>
      <trkpt lat="42.93471" lon="0.32211">
        <ele>1624</ele>
        <time>2021-12-18T11:37:10+01:00</time>
      </trkpt>
      <trkpt lat="42.93451" lon="0.32196">
        <ele>1629</ele>
        <time>2021-12-18T11:37:31+01:00</time>
      </trkpt>
      <trkpt lat="42.93432" lon="0.32179">
        <ele>1628</ele>
        <time>2021-12-18T11:37:52+01:00</time>
      </trkpt>
      <trkpt lat="42.93411" lon="0.32165">
        <ele>1628</ele>
        <time>2021-12-18T11:38:39+01:00</time>
      </trkpt>
      <trkpt lat="42.93395" lon="0.32143">
        <ele>1624</ele>
        <time>2021-12-18T11:39:03+01:00</time>
      </trkpt>
      <trkpt lat="42.93382" lon="0.32117">
        <ele>1621</ele>
        <time>2021-12-18T11:39:27+01:00</time>
      </trkpt>
      <trkpt lat="42.93364" lon="0.32097">
        <ele>1620</ele>
        <time>2021-12-18T11:39:53+01:00</time>
      </trkpt>
      <trkpt lat="42.93346" lon="0.32076">
        <ele>1619</ele>
        <time>2021-12-18T11:40:18+01:00</time>
      </trkpt>
      <trkpt lat="42.93326" lon="0.32061">
        <ele>1619</ele>
        <time>2021-12-18T11:40:48+01:00</time>
      </trkpt>
      <trkpt lat="42.93314" lon="0.32035">
        <ele>1618</ele>
        <time>2021-12-18T11:41:23+01:00</time>
      </trkpt>
      <trkpt lat="42.93301" lon="0.3201">
        <ele>1618</ele>
        <time>2021-12-18T11:41:49+01:00</time>
      </trkpt>
      <trkpt lat="42.93289" lon="0.31984">
        <ele>1617</ele>
        <time>2021-12-18T11:42:14+01:00</time>
      </trkpt>
      <trkpt lat="42.93285" lon="0.31953">
        <ele>1614</ele>
        <time>2021-12-18T11:42:37+01:00</time>
      </trkpt>
      <trkpt lat="42.93272" lon="0.31927">
        <ele>1615</ele>
        <time>2021-12-18T11:43:13+01:00</time>
      </trkpt>
      <trkpt lat="42.93268" lon="0.31897">
        <ele>1611</ele>
        <time>2021-12-18T11:44:03+01:00</time>
      </trkpt>
      <trkpt lat="42.9326" lon="0.31868">
        <ele>1609</ele>
        <time>2021-12-18T11:44:48+01:00</time>
      </trkpt>
      <trkpt lat="42.93238" lon="0.31854">
        <ele>1607</ele>
        <time>2021-12-18T11:45:07+01:00</time>
      </trkpt>
      <trkpt lat="42.93218" lon="0.3187">
        <ele>1609</ele>
        <time>2021-12-18T11:45:28+01:00</time>
      </trkpt>
      <trkpt lat="42.93196" lon="0.31879">
        <ele>1607</ele>
        <time>2021-12-18T11:45:48+01:00</time>
      </trkpt>
      <trkpt lat="42.93173" lon="0.31886">
        <ele>1603</ele>
        <time>2021-12-18T11:46:16+01:00</time>
      </trkpt>
      <trkpt lat="42.9315" lon="0.31891">
        <ele>1599</ele>
        <time>2021-12-18T11:47:56+01:00</time>
      </trkpt>
      <trkpt lat="42.93128" lon="0.319">
        <ele>1599</ele>
        <time>2021-12-18T11:48:24+01:00</time>
      </trkpt>
      <trkpt lat="42.93105" lon="0.31902">
        <ele>1599</ele>
        <time>2021-12-18T11:48:43+01:00</time>
      </trkpt>
      <trkpt lat="42.93082" lon="0.31906">
        <ele>1599</ele>
        <time>2021-12-18T11:49:03+01:00</time>
      </trkpt>
      <trkpt lat="42.93059" lon="0.31911">
        <ele>1600</ele>
        <time>2021-12-18T11:49:23+01:00</time>
      </trkpt>
      <trkpt lat="42.93037" lon="0.31902">
        <ele>1601</ele>
        <time>2021-12-18T11:49:43+01:00</time>
      </trkpt>
      <trkpt lat="42.93016" lon="0.31888">
        <ele>1602</ele>
        <time>2021-12-18T11:50:09+01:00</time>
      </trkpt>
      <trkpt lat="42.92996" lon="0.31873">
        <ele>1602</ele>
        <time>2021-12-18T11:50:33+01:00</time>
      </trkpt>
      <trkpt lat="42.92976" lon="0.31857">
        <ele>1603</ele>
        <time>2021-12-18T11:50:58+01:00</time>
      </trkpt>
      <trkpt lat="42.92956" lon="0.31842">
        <ele>1604</ele>
        <time>2021-12-18T11:51:20+01:00</time>
      </trkpt>
      <trkpt lat="42.92935" lon="0.31829">
        <ele>1605</ele>
        <time>2021-12-18T11:52:02+01:00</time>
      </trkpt>
      <trkpt lat="42.92914" lon="0.31815">
        <ele>1606</ele>
        <time>2021-12-18T11:52:21+01:00</time>
      </trkpt>
      <trkpt lat="42.92894" lon="0.31801">
        <ele>1607</ele>
        <time>2021-12-18T11:52:48+01:00</time>
      </trkpt>
      <trkpt lat="42.92875" lon="0.31784">
        <ele>1608</ele>
        <time>2021-12-18T11:53:20+01:00</time>
      </trkpt>
      <trkpt lat="42.92857" lon="0.31765">
        <ele>1609</ele>
        <time>2021-12-18T11:54:23+01:00</time>
      </trkpt>
      <trkpt lat="42.92834" lon="0.31757">
        <ele>1610</ele>
        <time>2021-12-18T11:54:47+01:00</time>
      </trkpt>
      <trkpt lat="42.92811" lon="0.31755">
        <ele>1609</ele>
        <time>2021-12-18T11:55:15+01:00</time>
      </trkpt>
      <trkpt lat="42.92788" lon="0.31753">
        <ele>1608</ele>
        <time>2021-12-18T11:56:19+01:00</time>
      </trkpt>
      <trkpt lat="42.92765" lon="0.31745">
        <ele>1606</ele>
        <time>2021-12-18T11:56:59+01:00</time>
      </trkpt>
      <trkpt lat="42.92744" lon="0.3173">
        <ele>1605</ele>
        <time>2021-12-18T11:57:22+01:00</time>
      </trkpt>
      <trkpt lat="42.92724" lon="0.31717">
        <ele>1602</ele>
        <time>2021-12-18T11:57:43+01:00</time>
      </trkpt>
      <trkpt lat="42.92701" lon="0.3171">
        <ele>1601</ele>
        <time>2021-12-18T11:58:03+01:00</time>
      </trkpt>
      <trkpt lat="42.92681" lon="0.31695">
        <ele>1606</ele>
        <time>2021-12-18T11:58:27+01:00</time>
      </trkpt>
      <trkpt lat="42.92659" lon="0.31685">
        <ele>1608</ele>
        <time>2021-12-18T11:59:00+01:00</time>
      </trkpt>
      <trkpt lat="42.92642" lon="0.31666">
        <ele>1611</ele>
        <time>2021-12-18T11:59:35+01:00</time>
      </trkpt>
      <trkpt lat="42.92625" lon="0.31644">
        <ele>1613</ele>
        <time>2021-12-18T12:00:01+01:00</time>
      </trkpt>
      <trkpt lat="42.92603" lon="0.31642">
        <ele>1616</ele>
        <time>2021-12-18T12:02:43+01:00</time>
      </trkpt>
      <trkpt lat="42.9258" lon="0.31636">
        <ele>1619</ele>
        <time>2021-12-18T12:03:12+01:00</time>
      </trkpt>
      <trkpt lat="42.92561" lon="0.31619">
        <ele>1625</ele>
        <time>2021-12-18T12:03:54+01:00</time>
      </trkpt>
      <trkpt lat="42.9254" lon="0.31608">
        <ele>1629</ele>
        <time>2021-12-18T12:04:30+01:00</time>
      </trkpt>
      <trkpt lat="42.9252" lon="0.31593">
        <ele>1631</ele>
        <time>2021-12-18T12:04:57+01:00</time>
      </trkpt>
      <trkpt lat="42.92499" lon="0.3158">
        <ele>1636</ele>
        <time>2021-12-18T12:05:33+01:00</time>
      </trkpt>
      <trkpt lat="42.92482" lon="0.31559">
        <ele>1636</ele>
        <time>2021-12-18T12:06:05+01:00</time>
      </trkpt>
      <trkpt lat="42.92465" lon="0.31537">
        <ele>1638</ele>
        <time>2021-12-18T12:07:44+01:00</time>
      </trkpt>
      <trkpt lat="42.92444" lon="0.31522">
        <ele>1639</ele>
        <time>2021-12-18T12:08:07+01:00</time>
      </trkpt>
      <trkpt lat="42.92422" lon="0.31513">
        <ele>1643</ele>
        <time>2021-12-18T12:08:37+01:00</time>
      </trkpt>
      <trkpt lat="42.92402" lon="0.31498">
        <ele>1654</ele>
        <time>2021-12-18T12:09:35+01:00</time>
      </trkpt>
      <trkpt lat="42.92379" lon="0.31496">
        <ele>1664</ele>
        <time>2021-12-18T12:10:47+01:00</time>
      </trkpt>
      <trkpt lat="42.92356" lon="0.31504">
        <ele>1672</ele>
        <time>2021-12-18T12:12:34+01:00</time>
      </trkpt>
      <trkpt lat="42.92335" lon="0.31493">
        <ele>1681</ele>
        <time>2021-12-18T12:13:26+01:00</time>
      </trkpt>
      <trkpt lat="42.92312" lon="0.31497">
        <ele>1682</ele>
        <time>2021-12-18T12:14:50+01:00</time>
      </trkpt>
      <trkpt lat="42.92291" lon="0.31486">
        <ele>1689</ele>
        <time>2021-12-18T12:15:32+01:00</time>
      </trkpt>
      <trkpt lat="42.92269" lon="0.31478">
        <ele>1696</ele>
        <time>2021-12-18T12:17:20+01:00</time>
      </trkpt>
      <trkpt lat="42.92249" lon="0.31463">
        <ele>1703</ele>
        <time>2021-12-18T12:17:42+01:00</time>
      </trkpt>
      <trkpt lat="42.9223" lon="0.31447">
        <ele>1705</ele>
        <time>2021-12-18T12:18:05+01:00</time>
      </trkpt>
      <trkpt lat="42.9221" lon="0.3143">
        <ele>1709</ele>
        <time>2021-12-18T12:18:48+01:00</time>
      </trkpt>
      <trkpt lat="42.92191" lon="0.31413">
        <ele>1717</ele>
        <time>2021-12-18T12:19:42+01:00</time>
      </trkpt>
      <trkpt lat="42.92168" lon="0.31409">
        <ele>1718</ele>
        <time>2021-12-18T12:20:36+01:00</time>
      </trkpt>
      <trkpt lat="42.92146" lon="0.31401">
        <ele>1723</ele>
        <time>2021-12-18T12:21:26+01:00</time>
      </trkpt>
      <trkpt lat="42.92124" lon="0.31393">
        <ele>1729</ele>
        <time>2021-12-18T12:22:05+01:00</time>
      </trkpt>
      <trkpt lat="42.92102" lon="0.31382">
        <ele>1732</ele>
        <time>2021-12-18T12:22:39+01:00</time>
      </trkpt>
      <trkpt lat="42.9208" lon="0.31371">
        <ele>1734</ele>
        <time>2021-12-18T12:23:04+01:00</time>
      </trkpt>
      <trkpt lat="42.92058" lon="0.31365">
        <ele>1736</ele>
        <time>2021-12-18T12:23:48+01:00</time>
      </trkpt>
      <trkpt lat="42.92038" lon="0.31351">
        <ele>1741</ele>
        <time>2021-12-18T12:24:11+01:00</time>
      </trkpt>
      <trkpt lat="42.92015" lon="0.31347">
        <ele>1744</ele>
        <time>2021-12-18T12:24:34+01:00</time>
      </trkpt>
      <trkpt lat="42.91995" lon="0.31361">
        <ele>1744</ele>
        <time>2021-12-18T12:25:07+01:00</time>
      </trkpt>
      <trkpt lat="42.91972" lon="0.31355">
        <ele>1747</ele>
        <time>2021-12-18T12:30:53+01:00</time>
      </trkpt>
      <trkpt lat="42.9195" lon="0.31349">
        <ele>1749</ele>
        <time>2021-12-18T12:31:16+01:00</time>
      </trkpt>
      <trkpt lat="42.91928" lon="0.3134">
        <ele>1750</ele>
        <time>2021-12-18T12:31:40+01:00</time>
      </trkpt>
      <trkpt lat="42.91906" lon="0.31334">
        <ele>1750</ele>
        <time>2021-12-18T12:35:10+01:00</time>
      </trkpt>
      <trkpt lat="42.91883" lon="0.31326">
        <ele>1750</ele>
        <time>2021-12-18T13:01:12+01:00</time>
      </trkpt>
      <trkpt lat="42.91862" lon="0.31313">
        <ele>1749</ele>
        <time>2021-12-18T13:01:53+01:00</time>
      </trkpt>
      <trkpt lat="42.91841" lon="0.313">
        <ele>1744</ele>
        <time>2021-12-18T13:02:11+01:00</time>
      </trkpt>
      <trkpt lat="42.91845" lon="0.31269">
        <ele>1741</ele>
        <time>2021-12-18T13:03:37+01:00</time>
      </trkpt>
      <trkpt lat="42.91853" lon="0.31239">
        <ele>1739</ele>
        <time>2021-12-18T13:03:56+01:00</time>
      </trkpt>
      <trkpt lat="42.91855" lon="0.31208">
        <ele>1736</ele>
        <time>2021-12-18T13:04:15+01:00</time>
      </trkpt>
      <trkpt lat="42.91863" lon="0.31179">
        <ele>1733</ele>
        <time>2021-12-18T13:04:45+01:00</time>
      </trkpt>
      <trkpt lat="42.91868" lon="0.31149">
        <ele>1729</ele>
        <time>2021-12-18T13:05:24+01:00</time>
      </trkpt>
      <trkpt lat="42.91872" lon="0.31117">
        <ele>1726</ele>
        <time>2021-12-18T13:07:31+01:00</time>
      </trkpt>
      <trkpt lat="42.91875" lon="0.31087">
        <ele>1724</ele>
        <time>2021-12-18T13:07:53+01:00</time>
      </trkpt>
      <trkpt lat="42.91875" lon="0.31056">
        <ele>1722</ele>
        <time>2021-12-18T13:08:13+01:00</time>
      </trkpt>
      <trkpt lat="42.91871" lon="0.31025">
        <ele>1719</ele>
        <time>2021-12-18T13:08:33+01:00</time>
      </trkpt>
      <trkpt lat="42.91869" lon="0.30994">
        <ele>1715</ele>
        <time>2021-12-18T13:08:53+01:00</time>
      </trkpt>
      <trkpt lat="42.91863" lon="0.30963">
        <ele>1712</ele>
        <time>2021-12-18T13:09:14+01:00</time>
      </trkpt>
      <trkpt lat="42.91855" lon="0.30934">
        <ele>1706</ele>
        <time>2021-12-18T13:09:46+01:00</time>
      </trkpt>
      <trkpt lat="42.91842" lon="0.30908">
        <ele>1700</ele>
        <time>2021-12-18T13:11:02+01:00</time>
      </trkpt>
      <trkpt lat="42.91826" lon="0.30886">
        <ele>1694</ele>
        <time>2021-12-18T13:11:43+01:00</time>
      </trkpt>
      <trkpt lat="42.91813" lon="0.3086">
        <ele>1686</ele>
        <time>2021-12-18T13:12:24+01:00</time>
      </trkpt>
      <trkpt lat="42.91804" lon="0.30831">
        <ele>1678</ele>
        <time>2021-12-18T13:12:58+01:00</time>
      </trkpt>
      <trkpt lat="42.91785" lon="0.30814">
        <ele>1669</ele>
        <time>2021-12-18T13:13:23+01:00</time>
      </trkpt>
      <trkpt lat="42.91764" lon="0.30802">
        <ele>1661</ele>
        <time>2021-12-18T13:13:49+01:00</time>
      </trkpt>
      <trkpt lat="42.91754" lon="0.30773">
        <ele>1652</ele>
        <time>2021-12-18T13:14:17+01:00</time>
      </trkpt>
      <trkpt lat="42.91743" lon="0.30746">
        <ele>1644</ele>
        <time>2021-12-18T13:14:45+01:00</time>
      </trkpt>
      <trkpt lat="42.91729" lon="0.30722">
        <ele>1639</ele>
        <time>2021-12-18T13:15:16+01:00</time>
      </trkpt>
      <trkpt lat="42.91721" lon="0.30693">
        <ele>1628</ele>
        <time>2021-12-18T13:18:18+01:00</time>
      </trkpt>
      <trkpt lat="42.91707" lon="0.30668">
        <ele>1620</ele>
        <time>2021-12-18T13:18:47+01:00</time>
      </trkpt>
      <trkpt lat="42.91691" lon="0.30645">
        <ele>1611</ele>
        <time>2021-12-18T13:19:10+01:00</time>
      </trkpt>
      <trkpt lat="42.91673" lon="0.30627">
        <ele>1602</ele>
        <time>2021-12-18T13:19:30+01:00</time>
      </trkpt>
      <trkpt lat="42.91653" lon="0.30612">
        <ele>1593</ele>
        <time>2021-12-18T13:19:52+01:00</time>
      </trkpt>
      <trkpt lat="42.91634" lon="0.30593">
        <ele>1585</ele>
        <time>2021-12-18T13:20:34+01:00</time>
      </trkpt>
      <trkpt lat="42.91623" lon="0.30566">
        <ele>1580</ele>
        <time>2021-12-18T13:20:58+01:00</time>
      </trkpt>
      <trkpt lat="42.91607" lon="0.30543">
        <ele>1574</ele>
        <time>2021-12-18T13:21:19+01:00</time>
      </trkpt>
      <trkpt lat="42.91591" lon="0.30521">
        <ele>1568</ele>
        <time>2021-12-18T13:21:40+01:00</time>
      </trkpt>
      <trkpt lat="42.91573" lon="0.30502">
        <ele>1561</ele>
        <time>2021-12-18T13:22:03+01:00</time>
      </trkpt>
      <trkpt lat="42.91558" lon="0.30479">
        <ele>1555</ele>
        <time>2021-12-18T13:22:27+01:00</time>
      </trkpt>
      <trkpt lat="42.91539" lon="0.3046">
        <ele>1550</ele>
        <time>2021-12-18T13:22:55+01:00</time>
      </trkpt>
      <trkpt lat="42.91525" lon="0.30435">
        <ele>1545</ele>
        <time>2021-12-18T13:23:19+01:00</time>
      </trkpt>
      <trkpt lat="42.9151" lon="0.30412">
        <ele>1539</ele>
        <time>2021-12-18T13:23:42+01:00</time>
      </trkpt>
      <trkpt lat="42.91495" lon="0.30386">
        <ele>1535</ele>
        <time>2021-12-18T13:24:04+01:00</time>
      </trkpt>
      <trkpt lat="42.91484" lon="0.30359">
        <ele>1529</ele>
        <time>2021-12-18T13:25:45+01:00</time>
      </trkpt>
      <trkpt lat="42.9148" lon="0.30328">
        <ele>1525</ele>
        <time>2021-12-18T13:26:08+01:00</time>
      </trkpt>
      <trkpt lat="42.91468" lon="0.30302">
        <ele>1519</ele>
        <time>2021-12-18T13:26:39+01:00</time>
      </trkpt>
      <trkpt lat="42.91459" lon="0.30273">
        <ele>1513</ele>
        <time>2021-12-18T13:27:02+01:00</time>
      </trkpt>
      <trkpt lat="42.91447" lon="0.30246">
        <ele>1510</ele>
        <time>2021-12-18T13:27:28+01:00</time>
      </trkpt>
      <trkpt lat="42.91427" lon="0.30228">
        <ele>1500</ele>
        <time>2021-12-18T13:28:05+01:00</time>
      </trkpt>
      <trkpt lat="42.91404" lon="0.30226">
        <ele>1488</ele>
        <time>2021-12-18T13:28:43+01:00</time>
      </trkpt>
      <trkpt lat="42.91383" lon="0.30213">
        <ele>1477</ele>
        <time>2021-12-18T13:29:35+01:00</time>
      </trkpt>
      <trkpt lat="42.91363" lon="0.30198">
        <ele>1467</ele>
        <time>2021-12-18T13:31:01+01:00</time>
      </trkpt>
      <trkpt lat="42.91345" lon="0.3018">
        <ele>1461</ele>
        <time>2021-12-18T13:31:38+01:00</time>
      </trkpt>
      <trkpt lat="42.91327" lon="0.3016">
        <ele>1457</ele>
        <time>2021-12-18T13:32:38+01:00</time>
      </trkpt>
      <trkpt lat="42.91311" lon="0.30137">
        <ele>1456</ele>
        <time>2021-12-18T13:33:06+01:00</time>
      </trkpt>
      <trkpt lat="42.91294" lon="0.30115">
        <ele>1453</ele>
        <time>2021-12-18T13:33:30+01:00</time>
      </trkpt>
      <trkpt lat="42.91272" lon="0.30121">
        <ele>1444</ele>
        <time>2021-12-18T13:34:24+01:00</time>
      </trkpt>
      <trkpt lat="42.91251" lon="0.30133">
        <ele>1436</ele>
        <time>2021-12-18T13:34:57+01:00</time>
      </trkpt>
      <trkpt lat="42.91232" lon="0.30113">
        <ele>1432</ele>
        <time>2021-12-18T13:35:41+01:00</time>
      </trkpt>
      <trkpt lat="42.91223" lon="0.30085">
        <ele>1428</ele>
        <time>2021-12-18T13:36:03+01:00</time>
      </trkpt>
      <trkpt lat="42.91211" lon="0.30059">
        <ele>1424</ele>
        <time>2021-12-18T13:36:29+01:00</time>
      </trkpt>
      <trkpt lat="42.91206" lon="0.30029">
        <ele>1420</ele>
        <time>2021-12-18T13:37:56+01:00</time>
      </trkpt>
      <trkpt lat="42.91194" lon="0.30001">
        <ele>1415</ele>
        <time>2021-12-18T13:38:33+01:00</time>
      </trkpt>
      <trkpt lat="42.91199" lon="0.2997">
        <ele>1413</ele>
        <time>2021-12-18T13:38:53+01:00</time>
      </trkpt>
      <trkpt lat="42.91203" lon="0.2994">
        <ele>1411</ele>
        <time>2021-12-18T13:39:13+01:00</time>
      </trkpt>
      <trkpt lat="42.91213" lon="0.29912">
        <ele>1409</ele>
        <time>2021-12-18T13:39:43+01:00</time>
      </trkpt>
      <trkpt lat="42.91226" lon="0.29887">
        <ele>1409</ele>
        <time>2021-12-18T13:40:05+01:00</time>
      </trkpt>
      <trkpt lat="42.91239" lon="0.29862">
        <ele>1408</ele>
        <time>2021-12-18T13:40:25+01:00</time>
      </trkpt>
      <trkpt lat="42.91256" lon="0.2984">
        <ele>1407</ele>
        <time>2021-12-18T13:40:46+01:00</time>
      </trkpt>
      <trkpt lat="42.91268" lon="0.29812">
        <ele>1405</ele>
        <time>2021-12-18T13:41:29+01:00</time>
      </trkpt>
      <trkpt lat="42.91282" lon="0.29788">
        <ele>1402</ele>
        <time>2021-12-18T13:42:10+01:00</time>
      </trkpt>
      <trkpt lat="42.91305" lon="0.2978">
        <ele>1400</ele>
        <time>2021-12-18T13:42:30+01:00</time>
      </trkpt>
      <trkpt lat="42.91327" lon="0.29784">
        <ele>1400</ele>
        <time>2021-12-18T13:42:49+01:00</time>
      </trkpt>
      <trkpt lat="42.91347" lon="0.2977">
        <ele>1399</ele>
        <time>2021-12-18T13:43:30+01:00</time>
      </trkpt>
      <trkpt lat="42.91368" lon="0.29755">
        <ele>1399</ele>
        <time>2021-12-18T13:43:56+01:00</time>
      </trkpt>
      <trkpt lat="42.91386" lon="0.29736">
        <ele>1399</ele>
        <time>2021-12-18T13:44:15+01:00</time>
      </trkpt>
      <trkpt lat="42.91405" lon="0.29719">
        <ele>1399</ele>
        <time>2021-12-18T13:44:34+01:00</time>
      </trkpt>
      <trkpt lat="42.91424" lon="0.29701">
        <ele>1400</ele>
        <time>2021-12-18T13:44:56+01:00</time>
      </trkpt>
      <trkpt lat="42.91443" lon="0.29681">
        <ele>1400</ele>
        <time>2021-12-18T13:45:13+01:00</time>
      </trkpt>
      <trkpt lat="42.91461" lon="0.29661">
        <ele>1399</ele>
        <time>2021-12-18T13:45:34+01:00</time>
      </trkpt>
      <trkpt lat="42.91479" lon="0.29642">
        <ele>1398</ele>
        <time>2021-12-18T13:46:08+01:00</time>
      </trkpt>
      <trkpt lat="42.91499" lon="0.29628">
        <ele>1397</ele>
        <time>2021-12-18T13:46:32+01:00</time>
      </trkpt>
      <trkpt lat="42.91519" lon="0.29615">
        <ele>1396</ele>
        <time>2021-12-18T13:46:49+01:00</time>
      </trkpt>
      <trkpt lat="42.91539" lon="0.29599">
        <ele>1391</ele>
        <time>2021-12-18T13:47:12+01:00</time>
      </trkpt>
      <trkpt lat="42.9156" lon="0.29584">
        <ele>1387</ele>
        <time>2021-12-18T13:47:30+01:00</time>
      </trkpt>
      <trkpt lat="42.91581" lon="0.2957">
        <ele>1380</ele>
        <time>2021-12-18T13:47:49+01:00</time>
      </trkpt>
      <trkpt lat="42.91602" lon="0.29558">
        <ele>1375</ele>
        <time>2021-12-18T13:48:09+01:00</time>
      </trkpt>
      <trkpt lat="42.91624" lon="0.29551">
        <ele>1373</ele>
        <time>2021-12-18T13:48:35+01:00</time>
      </trkpt>
      <trkpt lat="42.91646" lon="0.29541">
        <ele>1369</ele>
        <time>2021-12-18T13:48:56+01:00</time>
      </trkpt>
      <trkpt lat="42.91668" lon="0.29532">
        <ele>1366</ele>
        <time>2021-12-18T13:49:28+01:00</time>
      </trkpt>
      <trkpt lat="42.91691" lon="0.29533">
        <ele>1372</ele>
        <time>2021-12-18T13:49:52+01:00</time>
      </trkpt>
      <trkpt lat="42.91713" lon="0.29528">
        <ele>1370</ele>
        <time>2021-12-18T13:50:12+01:00</time>
      </trkpt>
      <trkpt lat="42.91736" lon="0.29532">
        <ele>1367</ele>
        <time>2021-12-18T13:50:38+01:00</time>
      </trkpt>
      <trkpt lat="42.91757" lon="0.29544">
        <ele>1362</ele>
        <time>2021-12-18T13:51:02+01:00</time>
      </trkpt>
      <trkpt lat="42.91777" lon="0.29559">
        <ele>1355</ele>
        <time>2021-12-18T13:51:25+01:00</time>
      </trkpt>
      <trkpt lat="42.91793" lon="0.29581">
        <ele>1351</ele>
        <time>2021-12-18T13:51:46+01:00</time>
      </trkpt>
      <trkpt lat="42.91815" lon="0.29595">
        <ele>1342</ele>
        <time>2021-12-18T13:52:06+01:00</time>
      </trkpt>
      <trkpt lat="42.91836" lon="0.29606">
        <ele>1335</ele>
        <time>2021-12-18T13:52:29+01:00</time>
      </trkpt>
      <trkpt lat="42.91843" lon="0.29636">
        <ele>1331</ele>
        <time>2021-12-18T13:53:18+01:00</time>
      </trkpt>
      <trkpt lat="42.91862" lon="0.29654">
        <ele>1326</ele>
        <time>2021-12-18T13:53:43+01:00</time>
      </trkpt>
      <trkpt lat="42.91883" lon="0.29668">
        <ele>1322</ele>
        <time>2021-12-18T13:54:28+01:00</time>
      </trkpt>
      <trkpt lat="42.91903" lon="0.29683">
        <ele>1320</ele>
        <time>2021-12-18T13:54:46+01:00</time>
      </trkpt>
      <trkpt lat="42.91921" lon="0.29702">
        <ele>1319</ele>
        <time>2021-12-18T13:55:05+01:00</time>
      </trkpt>
      <trkpt lat="42.91944" lon="0.29701">
        <ele>1317</ele>
        <time>2021-12-18T13:55:30+01:00</time>
      </trkpt>
      <trkpt lat="42.91964" lon="0.29716">
        <ele>1316</ele>
        <time>2021-12-18T13:55:53+01:00</time>
      </trkpt>
      <trkpt lat="42.91985" lon="0.29729">
        <ele>1317</ele>
        <time>2021-12-18T13:56:17+01:00</time>
      </trkpt>
      <trkpt lat="42.92008" lon="0.29729">
        <ele>1316</ele>
        <time>2021-12-18T13:56:39+01:00</time>
      </trkpt>
      <trkpt lat="42.92029" lon="0.29719">
        <ele>1315</ele>
        <time>2021-12-18T13:57:01+01:00</time>
      </trkpt>
      <trkpt lat="42.92051" lon="0.29727">
        <ele>1315</ele>
        <time>2021-12-18T13:57:29+01:00</time>
      </trkpt>
      <trkpt lat="42.92074" lon="0.29731">
        <ele>1313</ele>
        <time>2021-12-18T13:57:52+01:00</time>
      </trkpt>
      <trkpt lat="42.92097" lon="0.29734">
        <ele>1312</ele>
        <time>2021-12-18T13:58:11+01:00</time>
      </trkpt>
      <trkpt lat="42.9212" lon="0.2973">
        <ele>1311</ele>
        <time>2021-12-18T13:58:30+01:00</time>
      </trkpt>
      <trkpt lat="42.92142" lon="0.29721">
        <ele>1310</ele>
        <time>2021-12-18T13:58:47+01:00</time>
      </trkpt>
      <trkpt lat="42.92155" lon="0.29696">
        <ele>1310</ele>
        <time>2021-12-18T13:59:07+01:00</time>
      </trkpt>
      <trkpt lat="42.92176" lon="0.29681">
        <ele>1311</ele>
        <time>2021-12-18T13:59:41+01:00</time>
      </trkpt>
      <trkpt lat="42.92198" lon="0.29674">
        <ele>1313</ele>
        <time>2021-12-18T14:00:03+01:00</time>
      </trkpt>
      <trkpt lat="42.92219" lon="0.29663">
        <ele>1314</ele>
        <time>2021-12-18T14:00:23+01:00</time>
      </trkpt>
      <trkpt lat="42.9224" lon="0.29647">
        <ele>1315</ele>
        <time>2021-12-18T14:00:47+01:00</time>
      </trkpt>
      <trkpt lat="42.92261" lon="0.29637">
        <ele>1316</ele>
        <time>2021-12-18T14:01:19+01:00</time>
      </trkpt>
      <trkpt lat="42.92282" lon="0.29623">
        <ele>1314</ele>
        <time>2021-12-18T14:01:40+01:00</time>
      </trkpt>
      <trkpt lat="42.92304" lon="0.29612">
        <ele>1315</ele>
        <time>2021-12-18T14:01:59+01:00</time>
      </trkpt>
      <trkpt lat="42.92326" lon="0.29603">
        <ele>1314</ele>
        <time>2021-12-18T14:02:22+01:00</time>
      </trkpt>
      <trkpt lat="42.92349" lon="0.29604">
        <ele>1316</ele>
        <time>2021-12-18T14:02:42+01:00</time>
      </trkpt>
      <trkpt lat="42.92372" lon="0.296">
        <ele>1316</ele>
        <time>2021-12-18T14:03:04+01:00</time>
      </trkpt>
      <trkpt lat="42.92395" lon="0.29603">
        <ele>1317</ele>
        <time>2021-12-18T14:03:29+01:00</time>
      </trkpt>
      <trkpt lat="42.92417" lon="0.29597">
        <ele>1314</ele>
        <time>2021-12-18T14:03:50+01:00</time>
      </trkpt>
      <trkpt lat="42.92441" lon="0.29597">
        <ele>1311</ele>
        <time>2021-12-18T14:04:09+01:00</time>
      </trkpt>
      <trkpt lat="42.92464" lon="0.29601">
        <ele>1310</ele>
        <time>2021-12-18T14:04:55+01:00</time>
      </trkpt>
      <trkpt lat="42.92487" lon="0.29603">
        <ele>1309</ele>
        <time>2021-12-18T14:05:17+01:00</time>
      </trkpt>
      <trkpt lat="42.92509" lon="0.2961">
        <ele>1309</ele>
        <time>2021-12-18T14:05:40+01:00</time>
      </trkpt>
      <trkpt lat="42.92532" lon="0.29612">
        <ele>1307</ele>
        <time>2021-12-18T14:06:01+01:00</time>
      </trkpt>
      <trkpt lat="42.92552" lon="0.29627">
        <ele>1308</ele>
        <time>2021-12-18T14:06:18+01:00</time>
      </trkpt>
      <trkpt lat="42.92573" lon="0.29639">
        <ele>1308</ele>
        <time>2021-12-18T14:06:36+01:00</time>
      </trkpt>
      <trkpt lat="42.92595" lon="0.29647">
        <ele>1306</ele>
        <time>2021-12-18T14:06:53+01:00</time>
      </trkpt>
      <trkpt lat="42.92618" lon="0.29652">
        <ele>1300</ele>
        <time>2021-12-18T14:07:12+01:00</time>
      </trkpt>
      <trkpt lat="42.92641" lon="0.29658">
        <ele>1293</ele>
        <time>2021-12-18T14:07:31+01:00</time>
      </trkpt>
      <trkpt lat="42.92662" lon="0.29648">
        <ele>1286</ele>
        <time>2021-12-18T14:08:06+01:00</time>
      </trkpt>
      <trkpt lat="42.92683" lon="0.29634">
        <ele>1282</ele>
        <time>2021-12-18T14:08:26+01:00</time>
      </trkpt>
      <trkpt lat="42.92706" lon="0.29628">
        <ele>1275</ele>
        <time>2021-12-18T14:08:52+01:00</time>
      </trkpt>
      <trkpt lat="42.92728" lon="0.29619">
        <ele>1271</ele>
        <time>2021-12-18T14:10:22+01:00</time>
      </trkpt>
      <trkpt lat="42.92751" lon="0.2962">
        <ele>1263</ele>
        <time>2021-12-18T14:11:26+01:00</time>
      </trkpt>
      <trkpt lat="42.92774" lon="0.29618">
        <ele>1258</ele>
        <time>2021-12-18T14:11:49+01:00</time>
      </trkpt>
      <trkpt lat="42.92796" lon="0.29618">
        <ele>1253</ele>
        <time>2021-12-18T14:16:52+01:00</time>
      </trkpt>
      <trkpt lat="42.9282" lon="0.29614">
        <ele>1249</ele>
        <time>2021-12-18T14:17:12+01:00</time>
      </trkpt>
      <trkpt lat="42.92843" lon="0.29608">
        <ele>1247</ele>
        <time>2021-12-18T14:17:31+01:00</time>
      </trkpt>
      <trkpt lat="42.92865" lon="0.29606">
        <ele>1243</ele>
        <time>2021-12-18T14:17:48+01:00</time>
      </trkpt>
      <trkpt lat="42.92887" lon="0.29612">
        <ele>1240</ele>
        <time>2021-12-18T14:18:03+01:00</time>
      </trkpt>
      <trkpt lat="42.9291" lon="0.29617">
        <ele>1236</ele>
        <time>2021-12-18T14:18:20+01:00</time>
      </trkpt>
      <trkpt lat="42.92934" lon="0.29614">
        <ele>1232</ele>
        <time>2021-12-18T14:18:36+01:00</time>
      </trkpt>
      <trkpt lat="42.92956" lon="0.29611">
        <ele>1228</ele>
        <time>2021-12-18T14:18:54+01:00</time>
      </trkpt>
      <trkpt lat="42.9298" lon="0.29607">
        <ele>1223</ele>
        <time>2021-12-18T14:19:15+01:00</time>
      </trkpt>
      <trkpt lat="42.93002" lon="0.296">
        <ele>1218</ele>
        <time>2021-12-18T14:19:30+01:00</time>
      </trkpt>
      <trkpt lat="42.93025" lon="0.2959">
        <ele>1215</ele>
        <time>2021-12-18T14:19:47+01:00</time>
      </trkpt>
      <trkpt lat="42.93047" lon="0.29587">
        <ele>1211</ele>
        <time>2021-12-18T14:20:04+01:00</time>
      </trkpt>
      <trkpt lat="42.9307" lon="0.29582">
        <ele>1206</ele>
        <time>2021-12-18T14:20:24+01:00</time>
      </trkpt>
      <trkpt lat="42.93091" lon="0.2957">
        <ele>1202</ele>
        <time>2021-12-18T14:21:40+01:00</time>
      </trkpt>
      <trkpt lat="42.93113" lon="0.29561">
        <ele>1198</ele>
        <time>2021-12-18T14:21:58+01:00</time>
      </trkpt>
      <trkpt lat="42.93136" lon="0.2956">
        <ele>1193</ele>
        <time>2021-12-18T14:22:15+01:00</time>
      </trkpt>
      <trkpt lat="42.93159" lon="0.29552">
        <ele>1189</ele>
        <time>2021-12-18T14:23:00+01:00</time>
      </trkpt>
      <trkpt lat="42.9318" lon="0.29538">
        <ele>1186</ele>
        <time>2021-12-18T14:23:17+01:00</time>
      </trkpt>
      <trkpt lat="42.93203" lon="0.29532">
        <ele>1181</ele>
        <time>2021-12-18T14:23:37+01:00</time>
      </trkpt>
      <trkpt lat="42.93226" lon="0.29524">
        <ele>1175</ele>
        <time>2021-12-18T14:23:59+01:00</time>
      </trkpt>
      <trkpt lat="42.93247" lon="0.29514">
        <ele>1170</ele>
        <time>2021-12-18T14:24:19+01:00</time>
      </trkpt>
      <trkpt lat="42.9327" lon="0.29502">
        <ele>1165</ele>
        <time>2021-12-18T14:24:38+01:00</time>
      </trkpt>
      <trkpt lat="42.93289" lon="0.29485">
        <ele>1160</ele>
        <time>2021-12-18T14:24:54+01:00</time>
      </trkpt>
      <trkpt lat="42.93311" lon="0.29473">
        <ele>1154</ele>
        <time>2021-12-18T14:25:15+01:00</time>
      </trkpt>
      <trkpt lat="42.93333" lon="0.29474">
        <ele>1147</ele>
        <time>2021-12-18T14:25:56+01:00</time>
      </trkpt>
      <trkpt lat="42.93349" lon="0.29451">
        <ele>1143</ele>
        <time>2021-12-18T14:26:36+01:00</time>
      </trkpt>
      <trkpt lat="42.93334" lon="0.29428">
        <ele>1147</ele>
        <time>2021-12-18T14:27:17+01:00</time>
      </trkpt>
      <trkpt lat="42.93317" lon="0.29407">
        <ele>1149</ele>
        <time>2021-12-18T14:27:35+01:00</time>
      </trkpt>
      <trkpt lat="42.93298" lon="0.2939">
        <ele>1151</ele>
        <time>2021-12-18T14:27:51+01:00</time>
      </trkpt>
      <trkpt lat="42.93276" lon="0.29381">
        <ele>1153</ele>
        <time>2021-12-18T14:28:09+01:00</time>
      </trkpt>
      <trkpt lat="42.93263" lon="0.29354">
        <ele>1149</ele>
        <time>2021-12-18T14:28:30+01:00</time>
      </trkpt>
      <trkpt lat="42.93262" lon="0.29322">
        <ele>1146</ele>
        <time>2021-12-18T14:28:59+01:00</time>
      </trkpt>
      <trkpt lat="42.93282" lon="0.29306">
        <ele>1144</ele>
        <time>2021-12-18T14:29:15+01:00</time>
      </trkpt>
      <trkpt lat="42.933" lon="0.29289">
        <ele>1143</ele>
        <time>2021-12-18T14:29:30+01:00</time>
      </trkpt>
      <trkpt lat="42.93319" lon="0.29268">
        <ele>1141</ele>
        <time>2021-12-18T14:29:43+01:00</time>
      </trkpt>
      <trkpt lat="42.93334" lon="0.29244">
        <ele>1140</ele>
        <time>2021-12-18T14:29:58+01:00</time>
      </trkpt>
      <trkpt lat="42.93351" lon="0.29223">
        <ele>1139</ele>
        <time>2021-12-18T14:30:14+01:00</time>
      </trkpt>
      <trkpt lat="42.93371" lon="0.29204">
        <ele>1137</ele>
        <time>2021-12-18T14:30:29+01:00</time>
      </trkpt>
      <trkpt lat="42.93392" lon="0.29188">
        <ele>1136</ele>
        <time>2021-12-18T14:30:45+01:00</time>
      </trkpt>
      <trkpt lat="42.93411" lon="0.29172">
        <ele>1134</ele>
        <time>2021-12-18T14:30:59+01:00</time>
      </trkpt>
      <trkpt lat="42.93433" lon="0.29161">
        <ele>1133</ele>
        <time>2021-12-18T14:31:18+01:00</time>
      </trkpt>
      <trkpt lat="42.93453" lon="0.29146">
        <ele>1132</ele>
        <time>2021-12-18T14:31:33+01:00</time>
      </trkpt>
      <trkpt lat="42.93475" lon="0.29135">
        <ele>1131</ele>
        <time>2021-12-18T14:31:48+01:00</time>
      </trkpt>
      <trkpt lat="42.93496" lon="0.29124">
        <ele>1130</ele>
        <time>2021-12-18T14:32:02+01:00</time>
      </trkpt>
      <trkpt lat="42.93518" lon="0.29112">
        <ele>1129</ele>
        <time>2021-12-18T14:32:17+01:00</time>
      </trkpt>
      <trkpt lat="42.93537" lon="0.29093">
        <ele>1128</ele>
        <time>2021-12-18T14:32:34+01:00</time>
      </trkpt>
      <trkpt lat="42.93554" lon="0.29073">
        <ele>1127</ele>
        <time>2021-12-18T14:32:48+01:00</time>
      </trkpt>
      <trkpt lat="42.93572" lon="0.29055">
        <ele>1126</ele>
        <time>2021-12-18T14:33:01+01:00</time>
      </trkpt>
      <trkpt lat="42.93582" lon="0.29026">
        <ele>1125</ele>
        <time>2021-12-18T14:33:16+01:00</time>
      </trkpt>
      <trkpt lat="42.93593" lon="0.28999">
        <ele>1123</ele>
        <time>2021-12-18T14:33:34+01:00</time>
      </trkpt>
      <trkpt lat="42.93607" lon="0.28973">
        <ele>1122</ele>
        <time>2021-12-18T14:33:50+01:00</time>
      </trkpt>
      <trkpt lat="42.93622" lon="0.28949">
        <ele>1122</ele>
        <time>2021-12-18T14:34:05+01:00</time>
      </trkpt>
      <trkpt lat="42.93637" lon="0.28924">
        <ele>1123</ele>
        <time>2021-12-18T14:34:21+01:00</time>
      </trkpt>
      <trkpt lat="42.93649" lon="0.28898">
        <ele>1123</ele>
        <time>2021-12-18T14:34:36+01:00</time>
      </trkpt>
      <trkpt lat="42.93662" lon="0.28871">
        <ele>1124</ele>
        <time>2021-12-18T14:34:51+01:00</time>
      </trkpt>
      <trkpt lat="42.93677" lon="0.28847">
        <ele>1123</ele>
        <time>2021-12-18T14:35:05+01:00</time>
      </trkpt>
      <trkpt lat="42.93691" lon="0.28821">
        <ele>1122</ele>
        <time>2021-12-18T14:35:19+01:00</time>
      </trkpt>
      <trkpt lat="42.93706" lon="0.28797">
        <ele>1121</ele>
        <time>2021-12-18T14:35:33+01:00</time>
      </trkpt>
      <trkpt lat="42.93719" lon="0.28771">
        <ele>1120</ele>
        <time>2021-12-18T14:35:49+01:00</time>
      </trkpt>
      <trkpt lat="42.93735" lon="0.28749">
        <ele>1120</ele>
        <time>2021-12-18T14:36:02+01:00</time>
      </trkpt>
      <trkpt lat="42.93749" lon="0.28725">
        <ele>1119</ele>
        <time>2021-12-18T14:36:17+01:00</time>
      </trkpt>
      <trkpt lat="42.93763" lon="0.28699">
        <ele>1119</ele>
        <time>2021-12-18T14:36:32+01:00</time>
      </trkpt>
      <trkpt lat="42.93776" lon="0.28674">
        <ele>1118</ele>
        <time>2021-12-18T14:36:49+01:00</time>
      </trkpt>
      <trkpt lat="42.93792" lon="0.28648">
        <ele>1117</ele>
        <time>2021-12-18T14:37:05+01:00</time>
      </trkpt>
      <trkpt lat="42.93807" lon="0.28624">
        <ele>1116</ele>
        <time>2021-12-18T14:37:19+01:00</time>
      </trkpt>
      <trkpt lat="42.93823" lon="0.286">
        <ele>1115</ele>
        <time>2021-12-18T14:37:34+01:00</time>
      </trkpt>
      <trkpt lat="42.93837" lon="0.28575">
        <ele>1114</ele>
        <time>2021-12-18T14:37:50+01:00</time>
      </trkpt>
      <trkpt lat="42.93853" lon="0.28551">
        <ele>1113</ele>
        <time>2021-12-18T14:38:06+01:00</time>
      </trkpt>
      <trkpt lat="42.93869" lon="0.28527">
        <ele>1114</ele>
        <time>2021-12-18T14:38:21+01:00</time>
      </trkpt>
      <trkpt lat="42.93881" lon="0.28501">
        <ele>1113</ele>
        <time>2021-12-18T14:38:36+01:00</time>
      </trkpt>
      <trkpt lat="42.93895" lon="0.28475">
        <ele>1113</ele>
        <time>2021-12-18T14:38:51+01:00</time>
      </trkpt>
      <trkpt lat="42.93909" lon="0.28451">
        <ele>1112</ele>
        <time>2021-12-18T14:39:06+01:00</time>
      </trkpt>
      <trkpt lat="42.93921" lon="0.28424">
        <ele>1112</ele>
        <time>2021-12-18T14:39:22+01:00</time>
      </trkpt>
      <trkpt lat="42.93935" lon="0.28398">
        <ele>1111</ele>
        <time>2021-12-18T14:39:43+01:00</time>
      </trkpt>
      <trkpt lat="42.93954" lon="0.2838">
        <ele>1110</ele>
        <time>2021-12-18T14:39:59+01:00</time>
      </trkpt>
      <trkpt lat="42.93968" lon="0.28355">
        <ele>1109</ele>
        <time>2021-12-18T14:40:15+01:00</time>
      </trkpt>
      <trkpt lat="42.93985" lon="0.28332">
        <ele>1109</ele>
        <time>2021-12-18T14:40:33+01:00</time>
      </trkpt>
      <trkpt lat="42.94001" lon="0.28308">
        <ele>1107</ele>
        <time>2021-12-18T14:40:50+01:00</time>
      </trkpt>
      <trkpt lat="42.9402" lon="0.28287">
        <ele>1106</ele>
        <time>2021-12-18T14:41:06+01:00</time>
      </trkpt>
      <trkpt lat="42.94034" lon="0.28262">
        <ele>1105</ele>
        <time>2021-12-18T14:41:22+01:00</time>
      </trkpt>
      <trkpt lat="42.94052" lon="0.28242">
        <ele>1105</ele>
        <time>2021-12-18T14:41:38+01:00</time>
      </trkpt>
      <trkpt lat="42.94068" lon="0.28219">
        <ele>1105</ele>
        <time>2021-12-18T14:41:54+01:00</time>
      </trkpt>
      <trkpt lat="42.9408" lon="0.28191">
        <ele>1105</ele>
        <time>2021-12-18T14:42:10+01:00</time>
      </trkpt>
      <trkpt lat="42.94092" lon="0.28165">
        <ele>1104</ele>
        <time>2021-12-18T14:42:24+01:00</time>
      </trkpt>
      <trkpt lat="42.94108" lon="0.28142">
        <ele>1102</ele>
        <time>2021-12-18T14:42:39+01:00</time>
      </trkpt>
      <trkpt lat="42.94124" lon="0.28119">
        <ele>1101</ele>
        <time>2021-12-18T14:42:54+01:00</time>
      </trkpt>
      <trkpt lat="42.94144" lon="0.28103">
        <ele>1100</ele>
        <time>2021-12-18T14:43:09+01:00</time>
      </trkpt>
      <trkpt lat="42.94164" lon="0.2809">
        <ele>1099</ele>
        <time>2021-12-18T14:43:24+01:00</time>
      </trkpt>
      <trkpt lat="42.94184" lon="0.28074">
        <ele>1099</ele>
        <time>2021-12-18T14:43:39+01:00</time>
      </trkpt>
      <trkpt lat="42.94203" lon="0.28056">
        <ele>1096</ele>
        <time>2021-12-18T14:43:54+01:00</time>
      </trkpt>
      <trkpt lat="42.94222" lon="0.28036">
        <ele>1093</ele>
        <time>2021-12-18T14:44:09+01:00</time>
      </trkpt>
      <trkpt lat="42.94234" lon="0.28008">
        <ele>1092</ele>
        <time>2021-12-18T14:44:26+01:00</time>
      </trkpt>
      <trkpt lat="42.94246" lon="0.27982">
        <ele>1091</ele>
        <time>2021-12-18T14:44:45+01:00</time>
      </trkpt>
      <trkpt lat="42.94259" lon="0.27955">
        <ele>1091</ele>
        <time>2021-12-18T14:45:05+01:00</time>
      </trkpt>
      <trkpt lat="42.9427" lon="0.27929">
        <ele>1091</ele>
        <time>2021-12-18T14:45:21+01:00</time>
      </trkpt>
    </trkseg>
  </trk>
</gpx>